Time;durP1;ratioP1;P1;durP2;ratioP2;P2;SDS_P1;SDS_P2;PMS_P1;PMS_P2;Temp;Humidity;BMP_temperature;BMP_pressure;BME280_temperature;BME280_humidity;BME280_pressure;Samples;Min_cycle;Max_cycle;Signal;HPM_P1;HPM_P2
2021/12/01 00:02:12;;;;;;;2.80;1.57;;;4.30;2.30;;;;;;5034454;28;20172;-76
2021/12/01 00:04:38;;;;;;;1.60;1.50;;;4.30;85.90;;;;;;5034378;28;20180;-76
2021/12/01 00:07:06;;;;;;;1.50;1.40;;;4.30;99.90;;;;;;5034189;28;20172;-76
2021/12/01 00:09:32;;;;;;;1.77;1.60;;;4.20;99.90;;;;;;5032671;28;20231;-77
2021/12/01 00:11:57;;;;;;;2.10;1.33;;;4.20;99.90;;;;;;5034108;28;20702;-76
2021/12/01 00:14:23;;;;;;;1.70;1.60;;;4.20;99.90;;;;;;5034660;28;20180;-75
2021/12/01 00:16:48;;;;;;;1.60;1.50;;;4.20;99.90;;;;;;5034725;28;20176;-76
2021/12/01 00:19:14;;;;;;;1.70;1.60;;;4.20;99.90;;;;;;5033496;28;20279;-77
2021/12/01 00:21:39;;;;;;;2.07;1.57;;;4.20;99.90;;;;;;5033988;28;20235;-77
2021/12/01 00:24:05;;;;;;;2.33;1.83;;;4.20;99.90;;;;;;5033963;28;20621;-76
2021/12/01 00:26:30;;;;;;;1.50;1.40;;;4.20;99.90;;;;;;5033869;28;20172;-76
2021/12/01 00:28:56;;;;;;;3.87;1.60;;;4.20;99.90;;;;;;5033643;28;20180;-76
2021/12/01 00:31:21;;;;;;;1.70;1.60;;;4.20;99.90;;;;;;5033169;28;20202;-76
2021/12/01 00:33:47;;;;;;;2.07;1.70;;;4.10;99.90;;;;;;5033734;28;20204;-77
2021/12/01 00:36:15;;;;;;;1.53;1.43;;;4.20;99.90;;;;;;5033913;28;20210;-77
2021/12/01 00:38:42;;;;;;;4.53;1.57;;;4.20;99.90;;;;;;5034175;28;20179;-77
2021/12/01 00:41:12;;;;;;;3.00;1.70;;;4.10;99.90;;;;;;5032661;28;20223;-76
2021/12/01 00:43:41;;;;;;;4.10;1.67;;;4.20;99.90;;;;;;5033754;28;20172;-76
2021/12/01 00:46:12;;;;;;;1.70;1.60;;;4.10;99.90;;;;;;5033566;28;20184;-76
2021/12/01 00:48:38;;;;;;;1.57;1.40;;;4.20;99.90;;;;;;5033604;28;20176;-77
2021/12/01 00:51:04;;;;;;;2.80;1.63;;;4.20;99.90;;;;;;5033099;28;20196;-77
2021/12/01 00:53:30;;;;;;;1.43;1.33;;;4.20;99.90;;;;;;5033472;28;20176;-77
2021/12/01 00:55:56;;;;;;;1.60;1.40;;;4.20;99.90;;;;;;5033655;28;20184;-77
2021/12/01 00:58:22;;;;;;;1.50;1.40;;;4.20;99.90;;;;;;5033407;28;20694;-76
2021/12/01 01:00:49;;;;;;;1.47;1.30;;;4.20;99.90;;;;;;5032790;28;20216;-77
2021/12/01 01:03:15;;;;;;;1.50;1.40;;;4.20;99.90;;;;;;5033307;28;20172;-77
2021/12/01 01:05:41;;;;;;;1.60;1.30;;;4.20;99.90;;;;;;5033398;28;20172;-76
2021/12/01 01:08:07;;;;;;;1.50;1.40;;;4.20;99.90;;;;;;5033349;28;20186;-77
2021/12/01 01:18:34;;;;;;;1.50;1.40;;;4.20;99.90;;;;;;5033248;28;20560;-77
2021/12/01 01:21:01;;;;;;;1.67;1.50;;;4.20;99.90;;;;;;5032001;28;20219;-78
2021/12/01 01:23:29;;;;;;;2.17;1.43;;;4.20;99.90;;;;;;5032754;28;20644;-77
2021/12/01 01:25:58;;;;;;;1.33;1.23;;;4.30;99.90;;;;;;5032986;28;20218;-77
2021/12/01 01:28:24;;;;;;;1.50;1.40;;;4.30;89.80;;;;;;5014784;28;20176;-76
2021/12/01 01:30:50;;;;;;;2.40;1.60;;;4.30;82.10;;;;;;5032299;28;20265;-78
2021/12/01 01:33:15;;;;;;;1.50;1.40;;;4.30;99.90;;;;;;5032662;28;20215;-77
2021/12/01 01:35:41;;;;;;;1.40;1.30;;;4.30;99.90;;;;;;5032471;28;20195;-77
2021/12/01 01:38:07;;;;;;;1.43;1.33;;;4.30;99.90;;;;;;5032594;28;20247;-77
2021/12/01 01:40:32;;;;;;;1.60;1.50;;;4.20;99.90;;;;;;5031891;28;20607;-78
2021/12/01 01:42:58;;;;;;;1.60;1.40;;;4.30;94.20;;;;;;5032526;28;20172;-77
2021/12/01 01:45:24;;;;;;;1.80;1.43;;;4.30;99.90;;;;;;5032673;28;20705;-78
2021/12/01 01:48:05;;;;;;;1.50;1.40;;;4.30;99.90;;;;;;5032634;28;20775;-78
2021/12/01 01:50:36;;;;;;;3.10;2.03;;;4.30;99.90;;;;;;5031985;28;20335;-77
2021/12/01 01:53:28;;;;;;;1.80;1.40;;;4.30;99.90;;;;;;5032161;28;20175;-77
2021/12/01 01:55:58;;;;;;;1.80;1.60;;;4.30;99.90;;;;;;5029584;28;20184;-77
2021/12/01 01:58:24;;;;;;;1.73;1.63;;;4.40;99.90;;;;;;5032373;28;20526;-76
2021/12/01 02:01:08;;;;;;;1.70;1.60;;;4.40;99.90;;;;;;5031561;28;20218;-76
2021/12/01 02:03:35;;;;;;;1.70;1.60;;;4.40;99.90;;;;;;5031986;28;20206;-77
2021/12/01 02:06:01;;;;;;;3.53;1.50;;;4.40;99.90;;;;;;5031986;28;20207;-76
2021/12/01 02:08:30;;;;;;;1.70;1.60;;;4.40;99.90;;;;;;5031861;28;20191;-76
2021/12/01 02:11:01;;;;;;;1.63;1.50;;;4.50;99.90;;;;;;5031579;28;20203;-77
2021/12/01 02:13:27;;;;;;;1.57;1.47;;;4.50;90.90;;;;;;5032109;28;20172;-76
2021/12/01 02:15:54;;;;;;;2.10;1.60;;;4.50;57.90;;;;;;5031918;28;20248;-76
2021/12/01 02:18:20;;;;;;;1.40;1.30;;;4.50;54.10;;;;;;5031561;28;20675;-76
2021/12/01 02:21:12;;;;;;;1.87;1.50;;;4.60;1.00;;;;;;5031049;28;20219;-76
2021/12/01 02:23:41;;;;;;;1.40;1.30;;;4.50;63.60;;;;;;5031422;28;20171;-77
2021/12/01 02:26:07;;;;;;;1.73;1.40;;;4.60;1.00;;;;;;5031616;28;20202;-76
2021/12/01 02:28:35;;;;;;;1.83;1.30;;;4.60;1.00;;;;;;5031623;28;20203;-77
2021/12/01 02:31:02;;;;;;;1.57;1.47;;;4.70;1.00;;;;;;5031020;28;20310;-77
2021/12/01 02:33:28;;;;;;;1.50;1.33;;;4.70;1.00;;;;;;5030610;28;20175;-77
2021/12/01 02:35:54;;;;;;;1.40;1.30;;;4.70;1.00;;;;;;5031797;28;20174;-76
2021/12/01 02:38:20;;;;;;;1.50;1.40;;;4.60;9.80;;;;;;5031540;28;20648;-76
2021/12/01 02:40:46;;;;;;;2.43;1.40;;;4.60;10.00;;;;;;5031031;28;20215;-77
2021/12/01 02:43:12;;;;;;;1.30;1.20;;;4.60;1.00;;;;;;5031581;28;20214;-77
2021/12/01 02:45:40;;;;;;;1.43;1.30;;;4.60;1.00;;;;;;5031373;28;20175;-77
2021/12/01 02:48:07;;;;;;;1.87;1.43;;;4.70;1.00;;;;;;5031240;28;20186;-77
2021/12/01 02:50:32;;;;;;;1.30;1.20;;;4.70;1.00;;;;;;5030625;28;20738;-76
2021/12/01 02:52:58;;;;;;;1.30;1.20;;;4.70;1.00;;;;;;5031492;28;20172;-77
2021/12/01 02:55:27;;;;;;;1.50;1.40;;;4.70;1.00;;;;;;5031482;28;20636;-76
2021/12/01 02:57:53;;;;;;;1.50;1.40;;;4.70;1.00;;;;;;5031140;28;20171;-77
2021/12/01 03:00:22;;;;;;;1.30;1.10;;;4.70;1.00;;;;;;5030625;28;20256;-76
2021/12/01 03:02:48;;;;;;;1.13;1.10;;;4.80;1.00;;;;;;5030889;28;20259;-76
2021/12/01 03:05:18;;;;;;;1.37;1.27;;;4.70;1.00;;;;;;5031137;28;20178;-76
2021/12/01 03:07:45;;;;;;;1.30;1.20;;;4.70;1.00;;;;;;5031118;28;20270;-76
2021/12/01 03:10:12;;;;;;;1.40;1.30;;;4.70;1.00;;;;;;5030774;28;20215;-76
2021/12/01 03:12:39;;;;;;;1.70;1.27;;;4.70;8.20;;;;;;5030943;28;20556;-76
2021/12/01 03:15:08;;;;;;;1.33;1.23;;;4.70;1.00;;;;;;5031109;28;20190;-77
2021/12/01 03:17:33;;;;;;;3.03;1.27;;;4.70;1.00;;;;;;5030997;28;20203;-76
2021/12/01 03:19:59;;;;;;;1.30;1.20;;;4.70;1.00;;;;;;5030490;28;20246;-78
2021/12/01 03:22:25;;;;;;;1.87;1.70;;;4.70;1.00;;;;;;5031681;28;20202;-77
2021/12/01 03:24:52;;;;;;;2.70;1.53;;;4.70;1.00;;;;;;5030903;28;20218;-77
2021/12/01 03:27:17;;;;;;;1.37;1.27;;;4.70;1.00;;;;;;5031079;28;20266;-76
2021/12/01 03:29:46;;;;;;;1.40;1.30;;;4.80;1.00;;;;;;5030347;28;20283;-76
2021/12/01 03:32:13;;;;;;;1.43;1.33;;;4.90;1.00;;;;;;5030822;28;20207;-79
2021/12/01 03:34:40;;;;;;;1.40;1.30;;;4.90;1.00;;;;;;5031253;28;20180;-77
2021/12/01 03:37:06;;;;;;;1.87;1.30;;;4.80;1.00;;;;;;5031166;28;20202;-77
2021/12/01 03:39:31;;;;;;;2.90;1.33;;;4.80;1.00;;;;;;5030418;28;20652;-76
2021/12/01 03:41:57;;;;;;;1.87;1.30;;;4.90;1.00;;;;;;5030811;28;20345;-76
2021/12/01 03:44:22;;;;;;;2.10;1.20;;;4.90;1.00;;;;;;5032942;28;20636;-76
2021/12/01 03:46:48;;;;;;;1.50;1.40;;;4.90;1.00;;;;;;5048690;28;20191;-76
2021/12/01 03:49:15;;;;;;;1.47;1.37;;;4.90;1.00;;;;;;5054270;28;20183;-76
2021/12/01 03:51:40;;;;;;;1.53;1.40;;;4.90;1.00;;;;;;5053902;28;20180;-76
2021/12/01 03:54:06;;;;;;;1.37;1.27;;;4.90;1.00;;;;;;5051334;28;20256;-76
2021/12/01 03:56:33;;;;;;;1.30;1.20;;;4.90;1.00;;;;;;5034461;28;20206;-78
2021/12/01 03:58:59;;;;;;;1.50;1.40;;;5.00;1.00;;;;;;5034219;28;20184;-78
2021/12/01 04:01:25;;;;;;;1.43;1.33;;;4.90;1.00;;;;;;5033732;28;20277;-77
2021/12/01 04:03:51;;;;;;;1.60;1.30;;;4.90;1.00;;;;;;5034479;28;20204;-77
2021/12/01 04:06:16;;;;;;;1.40;1.30;;;5.00;1.00;;;;;;5034335;28;20179;-76
2021/12/01 04:08:42;;;;;;;2.40;1.30;;;5.00;1.00;;;;;;5034003;28;20207;-77
2021/12/01 04:11:08;;;;;;;1.40;1.20;;;5.00;1.00;;;;;;5033389;28;20207;-77
2021/12/01 04:13:33;;;;;;;1.50;1.40;;;5.00;1.00;;;;;;5033952;28;20272;-76
2021/12/01 04:15:59;;;;;;;1.57;1.30;;;5.00;1.00;;;;;;5034255;28;20183;-76
2021/12/01 04:18:24;;;;;;;1.50;1.40;;;5.00;1.00;;;;;;5034311;28;20588;-77
2021/12/01 04:20:50;;;;;;;2.03;1.50;;;5.20;1.00;;;;;;5033796;28;20231;-78
2021/12/01 04:23:16;;;;;;;1.53;1.33;;;5.10;1.00;;;;;;5033812;28;20649;-77
2021/12/01 04:25:41;;;;;;;2.60;1.50;;;5.00;1.00;;;;;;5034027;28;20172;-77
2021/12/01 04:28:07;;;;;;;1.80;1.40;;;5.00;1.00;;;;;;5033943;28;20171;-77
2021/12/01 04:30:33;;;;;;;1.50;1.40;;;5.10;1.00;;;;;;5033638;28;20725;-78
2021/12/01 04:32:59;;;;;;;1.80;1.47;;;5.10;1.00;;;;;;5034417;28;20626;-78
2021/12/01 04:35:26;;;;;;;1.87;1.50;;;5.10;1.00;;;;;;5033702;28;20203;-76
2021/12/01 04:37:52;;;;;;;1.43;1.33;;;5.10;1.00;;;;;;5033702;28;20180;-77
2021/12/01 04:40:18;;;;;;;1.90;1.50;;;5.10;1.00;;;;;;5032951;28;20211;-76
2021/12/01 04:42:44;;;;;;;1.93;1.63;;;5.10;1.00;;;;;;5033507;28;20222;-76
2021/12/01 04:45:14;;;;;;;1.70;1.57;;;5.00;1.00;;;;;;5033781;28;20187;-77
2021/12/01 04:47:46;;;;;;;1.67;1.43;;;5.00;1.00;;;;;;5033606;28;20206;-77
2021/12/01 04:50:13;;;;;;;2.13;1.30;;;5.00;1.00;;;;;;5032993;28;20195;-77
2021/12/01 04:52:38;;;;;;;3.03;1.30;;;5.00;1.00;;;;;;5033390;28;20266;-76
2021/12/01 04:55:05;;;;;;;1.93;1.40;;;5.10;1.00;;;;;;5032622;28;20256;-76
2021/12/01 04:57:31;;;;;;;2.97;1.53;;;5.10;1.00;;;;;;5033175;28;20211;-77
2021/12/01 04:59:56;;;;;;;1.40;1.30;;;5.10;1.00;;;;;;5032685;28;20234;-77
2021/12/01 05:02:22;;;;;;;2.73;1.50;;;5.20;1.00;;;;;;5033384;28;20184;-76
2021/12/01 05:04:48;;;;;;;1.73;1.60;;;5.10;1.00;;;;;;5033059;28;20710;-77
2021/12/01 05:07:13;;;;;;;1.87;1.40;;;5.20;1.00;;;;;;5033069;28;20195;-77
2021/12/01 05:09:39;;;;;;;3.13;1.33;;;5.20;1.00;;;;;;5032576;28;20192;-75
2021/12/01 05:12:09;;;;;;;1.37;1.27;;;5.30;1.00;;;;;;5033176;28;20218;-77
2021/12/01 05:14:36;;;;;;;3.73;3.00;;;5.30;1.00;;;;;;5033019;28;20636;-76
2021/12/01 05:17:03;;;;;;;7.47;6.87;;;5.30;1.00;;;;;;5032197;28;20191;-75
2021/12/01 05:19:28;;;;;;;3.50;2.57;;;5.30;1.00;;;;;;5032006;28;20188;-78
2021/12/01 05:21:54;;;;;;;6.40;5.40;;;5.30;1.00;;;;;;5032490;28;20583;-77
2021/12/01 05:24:20;;;;;;;3.73;2.43;;;5.40;1.00;;;;;;5033565;28;20190;-76
2021/12/01 05:26:47;;;;;;;3.90;2.60;;;5.30;1.00;;;;;;5034037;28;20553;-77
2021/12/01 05:29:12;;;;;;;2.20;2.00;;;5.40;1.00;;;;;;5032937;28;20180;-77
2021/12/01 05:31:38;;;;;;;4.03;2.70;;;5.40;1.00;;;;;;5032918;28;20517;-78
2021/12/01 05:34:04;;;;;;;2.37;2.17;;;5.40;1.00;;;;;;5032956;28;20176;-76
2021/12/01 05:36:29;;;;;;;4.60;2.70;;;5.40;1.00;;;;;;5032856;28;20515;-77
2021/12/01 05:38:55;;;;;;;3.27;2.70;;;5.40;1.00;;;;;;5033007;28;20584;-77
2021/12/01 05:41:21;;;;;;;2.50;2.30;;;5.40;1.00;;;;;;5032256;28;20273;-77
2021/12/01 05:43:47;;;;;;;2.63;2.43;;;5.40;1.00;;;;;;5032621;28;20226;-78
2021/12/01 05:46:12;;;;;;;2.50;2.33;;;5.40;1.00;;;;;;5032480;28;20184;-77
2021/12/01 05:48:38;;;;;;;1.70;1.60;;;5.40;1.00;;;;;;5032587;28;20791;-76
2021/12/01 05:51:04;;;;;;;2.77;2.30;;;5.50;1.00;;;;;;5032031;28;20207;-76
2021/12/01 05:53:29;;;;;;;2.00;1.87;;;5.70;1.00;;;;;;5032395;28;20179;-76
2021/12/01 05:55:55;;;;;;;1.50;1.40;;;5.70;1.00;;;;;;5032449;28;20195;-76
2021/12/01 05:58:21;;;;;;;2.47;2.27;;;5.90;1.00;;;;;;5032392;28;20187;-76
2021/12/01 06:00:48;;;;;;;1.30;1.20;;;5.90;1.00;;;;;;5031580;28;20589;-76
2021/12/01 06:03:15;;;;;;;11.50;10.30;;;6.00;99.90;;;;;;5032314;28;20186;-77
2021/12/01 06:05:43;;;;;;;2.30;1.87;;;6.00;99.90;;;;;;5032370;28;20172;-76
2021/12/01 06:08:08;;;;;;;2.20;2.00;;;6.00;99.90;;;;;;5031201;28;20190;-77
2021/12/01 06:10:34;;;;;;;1.27;1.17;;;6.00;99.90;;;;;;5031698;28;20184;-77
2021/12/01 06:13:00;;;;;;;2.00;1.90;;;6.10;99.90;;;;;;5031809;28;20641;-77
2021/12/01 06:15:26;;;;;;;1.90;1.67;;;6.10;99.90;;;;;;5032223;28;20171;-78
2021/12/01 06:17:52;;;;;;;1.77;1.67;;;6.10;99.90;;;;;;5032104;28;20258;-76
2021/12/01 06:20:17;;;;;;;3.07;2.40;;;6.10;99.90;;;;;;5031130;28;20224;-76
2021/12/01 06:22:44;;;;;;;1.53;1.37;;;6.20;99.90;;;;;;5031651;28;20172;-76
2021/12/01 06:25:10;;;;;;;2.73;2.53;;;6.30;48.60;;;;;;5031976;28;20180;-76
2021/12/01 06:27:36;;;;;;;1.67;1.57;;;6.30;99.90;;;;;;5031964;28;20184;-76
2021/12/01 06:30:05;;;;;;;2.47;2.37;;;6.30;99.90;;;;;;5031290;28;20198;-77
2021/12/01 06:32:30;;;;;;;1.67;1.50;;;6.30;99.90;;;;;;5029169;28;20187;-76
2021/12/01 06:34:56;;;;;;;24.07;11.43;;;6.20;99.90;;;;;;5031307;28;20589;-77
2021/12/01 06:37:21;;;;;;;4.47;3.50;;;6.20;1.00;;;;;;5030229;28;20647;-77
2021/12/01 06:39:47;;;;;;;2.27;1.50;;;6.20;99.90;;;;;;5030162;28;20314;-77
2021/12/01 06:42:13;;;;;;;3.93;2.57;;;6.10;99.90;;;;;;5012650;28;20212;-77
2021/12/01 06:44:39;;;;;;;2.53;1.57;;;6.30;99.90;;;;;;5030471;28;22288;-78
2021/12/01 06:47:04;;;;;;;2.43;1.63;;;6.30;7.30;;;;;;5030456;28;20274;-78
2021/12/01 06:49:30;;;;;;;1.50;1.30;;;6.40;1.00;;;;;;5030483;28;20567;-77
2021/12/01 06:51:56;;;;;;;1.17;1.07;;;6.60;1.00;;;;;;5030660;28;20184;-78
2021/12/01 06:54:21;;;;;;;1.00;0.90;;;6.60;1.00;;;;;;5031458;28;20254;-77
2021/12/01 06:56:47;;;;;;;1.10;1.00;;;6.70;66.90;;;;;;5031905;28;20180;-77
2021/12/01 06:59:13;;;;;;;1.07;1.07;;;6.80;99.90;;;;;;5031544;28;20175;-77
2021/12/01 07:01:39;;;;;;;1.20;1.10;;;6.80;99.90;;;;;;5031788;28;20215;-78
2021/12/01 07:04:04;;;;;;;1.00;1.00;;;6.80;99.90;;;;;;5031885;28;20830;-77
2021/12/01 07:06:30;;;;;;;1.33;1.10;;;6.80;1.00;;;;;;5031586;28;20184;-78
2021/12/01 07:08:59;;;;;;;1.20;1.00;;;6.80;99.90;;;;;;5031657;28;20183;-77
2021/12/01 07:11:25;;;;;;;1.30;1.20;;;6.80;1.00;;;;;;5031410;28;20211;-78
2021/12/01 07:13:51;;;;;;;1.07;0.97;;;6.80;99.90;;;;;;5031832;28;20648;-78
2021/12/01 07:16:16;;;;;;;1.70;1.10;;;6.90;99.90;;;;;;5032420;28;20187;-78
2021/12/01 07:18:42;;;;;;;2.07;1.87;;;6.80;99.50;;;;;;5032987;28;20195;-77
2021/12/01 07:21:07;;;;;;;0.80;0.80;;;6.90;1.00;;;;;;5034843;28;20215;-77
2021/12/01 07:23:33;;;;;;;2.40;1.10;;;6.90;99.90;;;;;;5036044;28;20644;-77
2021/12/01 07:26:00;;;;;;;2.30;1.10;;;6.90;1.00;;;;;;5035528;28;20358;-76
2021/12/01 07:28:25;;;;;;;1.43;1.00;;;6.90;1.00;;;;;;5035695;28;20171;-75
2021/12/01 07:30:51;;;;;;;0.90;0.90;;;6.90;1.00;;;;;;5034971;28;20196;-77
2021/12/01 07:33:16;;;;;;;24.07;11.20;;;6.90;1.00;;;;;;5035695;28;20366;-78
2021/12/01 07:35:42;;;;;;;1.30;1.20;;;6.90;1.00;;;;;;5036529;28;20183;-77
2021/12/01 07:38:07;;;;;;;1.23;1.20;;;6.90;1.00;;;;;;5037490;28;20222;-77
2021/12/01 07:40:33;;;;;;;5.53;1.90;;;6.90;1.00;;;;;;5038225;28;20208;-77
2021/12/01 07:42:59;;;;;;;2.57;1.30;;;6.80;1.00;;;;;;5036256;28;20237;-78
2021/12/01 07:45:24;;;;;;;2.30;1.10;;;6.80;1.00;;;;;;5036166;28;20172;-77
2021/12/01 07:47:50;;;;;;;2.60;1.10;;;6.80;99.90;;;;;;5035908;28;20172;-79
2021/12/01 07:50:15;;;;;;;2.77;1.70;;;6.70;99.90;;;;;;5035974;28;20195;-78
2021/12/01 07:52:41;;;;;;;2.27;1.50;;;6.80;1.00;;;;;;5017500;28;20683;-78
2021/12/01 07:55:07;;;;;;;3.63;3.30;;;6.70;1.00;;;;;;5017372;28;20195;-77
2021/12/01 07:57:34;;;;;;;2.20;1.20;;;6.70;99.90;;;;;;5034918;28;20228;-79
2021/12/01 07:59:59;;;;;;;1.70;1.40;;;6.70;1.00;;;;;;5034199;28;20200;-76
2021/12/01 08:02:25;;;;;;;2.13;1.10;;;6.80;99.90;;;;;;5034933;28;20179;-78
2021/12/01 08:04:51;;;;;;;1.80;1.30;;;6.80;99.90;;;;;;5034824;28;20176;-77
2021/12/01 08:07:18;;;;;;;1.10;1.00;;;6.80;99.90;;;;;;5035314;28;20171;-78
2021/12/01 08:09:44;;;;;;;1.40;1.10;;;6.90;99.90;;;;;;5034903;28;20423;-77
2021/12/01 08:12:11;;;;;;;1.30;1.20;;;6.80;99.90;;;;;;5034709;28;20630;-78
2021/12/01 08:14:38;;;;;;;2.13;1.10;;;6.80;99.90;;;;;;5035288;28;20179;-77
2021/12/01 08:17:04;;;;;;;1.20;1.10;;;6.80;1.00;;;;;;5034969;28;20175;-78
2021/12/01 08:19:29;;;;;;;1.20;1.10;;;6.90;99.90;;;;;;5034243;28;20223;-79
2021/12/01 08:21:55;;;;;;;1.20;1.10;;;6.90;1.00;;;;;;5035703;28;20242;-80
2021/12/01 08:24:21;;;;;;;2.33;1.20;;;6.90;99.90;;;;;;5035190;28;20182;-77
2021/12/01 08:26:47;;;;;;;1.67;1.23;;;6.90;1.00;;;;;;5034987;28;20262;-79
2021/12/01 08:29:13;;;;;;;1.40;1.00;;;7.00;1.00;;;;;;5034193;28;20221;-79
2021/12/01 08:31:39;;;;;;;1.60;0.93;;;7.10;99.90;;;;;;5033628;28;20184;-78
2021/12/01 08:34:05;;;;;;;1.50;1.10;;;7.20;1.00;;;;;;5035183;28;20172;-82
2021/12/01 08:36:31;;;;;;;2.77;1.40;;;7.20;1.00;;;;;;5035236;28;20176;-78
2021/12/01 08:38:56;;;;;;;1.73;1.30;;;7.30;1.00;;;;;;5034683;28;20186;-78
2021/12/01 08:41:22;;;;;;;2.80;1.00;;;7.40;99.90;;;;;;5033914;28;20246;-79
2021/12/01 08:43:48;;;;;;;1.77;1.27;;;7.40;1.00;;;;;;5035243;28;20258;-78
2021/12/01 08:46:14;;;;;;;1.00;1.00;;;7.60;1.00;;;;;;5034724;28;20176;-79
2021/12/01 08:48:40;;;;;;;1.53;1.10;;;7.60;99.90;;;;;;5035915;28;20179;-79
2021/12/01 08:51:06;;;;;;;2.10;1.00;;;7.60;1.00;;;;;;5035532;28;20269;-80
2021/12/01 08:53:35;;;;;;;1.20;1.10;;;7.60;1.00;;;;;;5037161;28;20629;-78
2021/12/01 08:56:02;;;;;;;1.00;1.00;;;7.70;1.00;;;;;;5035966;28;20187;-78
2021/12/01 08:58:28;;;;;;;1.13;1.00;;;7.70;1.00;;;;;;5037500;28;20509;-78
2021/12/01 09:00:55;;;;;;;1.47;1.00;;;7.90;99.90;;;;;;5034844;28;20303;-79
2021/12/01 09:03:22;;;;;;;2.13;1.10;;;8.10;1.00;;;;;;5034510;28;20172;-78
2021/12/01 09:05:49;;;;;;;1.23;1.03;;;8.20;99.90;;;;;;5034997;28;20172;-78
2021/12/01 09:08:17;;;;;;;1.23;1.00;;;8.30;1.00;;;;;;5034362;28;20259;-77
2021/12/01 09:10:43;;;;;;;1.30;1.20;;;8.60;1.00;;;;;;5034825;28;20204;-78
2021/12/01 09:13:09;;;;;;;2.20;1.30;;;8.70;1.00;;;;;;5034522;28;20175;-79
2021/12/01 09:15:35;;;;;;;1.53;1.20;;;8.80;1.00;;;;;;5034106;28;20182;-78
2021/12/01 09:18:01;;;;;;;1.93;1.47;;;9.20;99.90;;;;;;5034580;28;20180;-78
2021/12/01 09:20:27;;;;;;;1.10;1.00;;;9.10;99.90;;;;;;5033497;28;20215;-77
2021/12/01 09:22:53;;;;;;;1.20;1.00;;;9.00;99.90;;;;;;5034144;28;20206;-77
2021/12/01 09:25:19;;;;;;;2.30;1.20;;;9.10;99.90;;;;;;5035723;28;20578;-78
2021/12/01 09:27:46;;;;;;;1.73;1.10;;;9.30;99.90;;;;;;5051740;28;20239;-78
2021/12/01 09:30:13;;;;;;;1.47;1.27;;;10.10;99.90;;;;;;5052043;28;20199;-78
2021/12/01 09:32:39;;;;;;;2.40;1.10;;;11.20;1.00;;;;;;5053602;28;20620;-78
2021/12/01 09:35:09;;;;;;;1.37;1.27;;;11.40;1.00;;;;;;5045256;28;20182;-77
2021/12/01 09:37:35;;;;;;;4.63;1.20;;;12.50;1.00;;;;;;5032840;28;20594;-77
2021/12/01 09:40:03;;;;;;;1.40;1.30;;;12.80;1.00;;;;;;5032046;28;20195;-77
2021/12/01 09:42:29;;;;;;;3.63;1.00;;;11.60;1.00;;;;;;5032987;28;20594;-76
2021/12/01 09:44:56;;;;;;;1.27;0.87;;;10.10;1.00;;;;;;5032920;28;20183;-76
2021/12/01 09:47:22;;;;;;;1.40;1.30;;;9.90;13.20;;;;;;5033327;28;20188;-77
2021/12/01 09:49:50;;;;;;;4.27;1.00;;;9.60;52.40;;;;;;5031993;28;20245;-75
2021/12/01 09:52:16;;;;;;;0.70;0.70;;;9.40;99.90;;;;;;5032576;28;20172;-75
2021/12/01 09:54:41;;;;;;;0.67;0.67;;;9.20;99.90;;;;;;5032417;28;20176;-76
2021/12/01 09:57:12;;;;;;;0.70;0.70;;;9.10;99.90;;;;;;5032522;28;20180;-76
2021/12/01 09:59:37;;;;;;;0.90;0.83;;;9.20;99.90;;;;;;5032047;28;20370;-76
2021/12/01 10:02:03;;;;;;;1.03;0.70;;;9.10;1.00;;;;;;5032513;28;20358;-75
2021/12/01 10:04:29;;;;;;;1.00;0.90;;;9.00;1.00;;;;;;5032356;28;20179;-76
2021/12/01 10:07:17;;;;;;;0.80;0.80;;;9.10;1.00;;;;;;5032494;28;20184;-76
2021/12/01 10:09:50;;;;;;;4.27;0.97;;;9.10;1.00;;;;;;5033315;28;20199;-77
2021/12/01 10:12:16;;;;;;;1.83;1.60;;;9.20;1.00;;;;;;5033571;28;20172;-77
2021/12/01 10:14:47;;;;;;;2.40;1.70;;;9.30;99.90;;;;;;5033431;28;20184;-77
2021/12/01 10:17:15;;;;;;;1.27;1.17;;;9.20;1.00;;;;;;5032474;28;20179;-77
2021/12/01 10:19:40;;;;;;;1.03;1.03;;;9.40;1.00;;;;;;5031584;28;20257;-78
2021/12/01 10:22:10;;;;;;;0.97;0.80;;;9.40;1.00;;;;;;5032410;28;20222;-77
2021/12/01 10:24:39;;;;;;;0.83;0.83;;;9.50;1.00;;;;;;5032235;28;20180;-75
2021/12/01 10:27:11;;;;;;;0.83;0.83;;;9.50;99.90;;;;;;5032725;28;20254;-77
2021/12/01 10:29:48;;;;;;;1.40;1.20;;;9.40;1.00;;;;;;5031599;28;20702;-77
2021/12/01 10:32:17;;;;;;;0.90;0.90;;;9.30;1.00;;;;;;5064961;22;20556;-80
2021/12/01 10:34:53;;;;;;;1.27;1.10;;;9.20;1.00;;;;;;5079929;28;20727;-81
2021/12/01 10:37:29;;;;;;;0.80;0.80;;;9.20;1.00;;;;;;5079335;28;20270;-79
2021/12/01 10:40:14;;;;;;;1.50;1.00;;;9.20;1.00;;;;;;5079544;28;20281;-81
2021/12/01 10:42:56;;;;;;;0.93;0.93;;;9.20;1.00;;;;;;5078446;28;20655;-82
2021/12/01 10:45:24;;;;;;;0.90;0.80;;;9.20;1.00;;;;;;5079994;28;20175;-81
2021/12/01 10:47:51;;;;;;;0.83;0.80;;;9.30;1.00;;;;;;5075916;28;20174;-79
2021/12/01 10:50:20;;;;;;;0.80;0.80;;;9.30;1.00;;;;;;5078742;28;20201;-79
2021/12/01 10:52:51;;;;;;;0.80;0.80;;;9.30;1.00;;;;;;5075987;28;20181;-78
2021/12/01 10:55:20;;;;;;;0.80;0.80;;;9.40;1.00;;;;;;5074837;28;20175;-80
2021/12/01 10:57:48;;;;;;;0.80;0.80;;;9.40;1.00;;;;;;5073458;28;20183;-80
2021/12/01 11:00:22;;;;;;;1.23;0.90;;;9.50;1.00;;;;;;5078826;28;20232;-80
2021/12/01 11:02:49;;;;;;;1.20;0.70;;;9.60;99.90;;;;;;5076187;28;20528;-80
2021/12/01 11:05:29;;;;;;;3.00;0.90;;;10.00;99.90;;;;;;5076666;28;20174;-80
2021/12/01 11:07:55;;;;;;;2.50;0.90;;;11.10;84.60;;;;;;5074028;28;20179;-80
2021/12/01 11:10:24;;;;;;;0.70;0.70;;;11.20;17.70;;;;;;5075535;28;20733;-80
2021/12/01 11:12:59;;;;;;;0.90;0.90;;;10.80;28.00;;;;;;5076132;28;20670;-79
2021/12/01 11:15:31;;;;;;;1.03;0.93;;;10.40;99.90;;;;;;5078482;28;20254;-78
2021/12/01 11:17:59;;;;;;;1.00;0.90;;;10.60;90.00;;;;;;5076289;28;20265;-80
2021/12/01 11:20:54;;;;;;;1.87;1.23;;;10.30;99.90;;;;;;5056176;28;20213;-79
2021/12/01 11:23:27;;;;;;;0.97;0.90;;;10.40;99.90;;;;;;5073840;28;20187;-79
2021/12/01 11:25:57;;;;;;;0.93;0.90;;;10.40;99.90;;;;;;5075547;28;20174;-79
2021/12/01 11:28:25;;;;;;;0.80;0.80;;;10.40;99.90;;;;;;5075879;28;20527;-77
2021/12/01 11:30:55;;;;;;;1.03;0.90;;;10.40;99.90;;;;;;5074852;28;20229;-80
2021/12/01 11:33:22;;;;;;;2.63;1.10;;;10.40;99.90;;;;;;5072836;28;20674;-80
2021/12/01 11:35:52;;;;;;;1.50;1.40;;;10.50;99.90;;;;;;5076999;28;20175;-80
2021/12/01 11:38:18;;;;;;;1.00;0.90;;;10.30;99.90;;;;;;5078716;28;20181;-81
2021/12/01 11:40:45;;;;;;;1.57;0.90;;;10.30;99.90;;;;;;5076522;28;20221;-81
2021/12/01 11:43:13;;;;;;;1.20;1.10;;;10.60;99.90;;;;;;5077835;28;20179;-79
2021/12/01 11:45:41;;;;;;;1.10;1.00;;;10.80;99.90;;;;;;5077138;28;20178;-79
2021/12/01 11:48:11;;;;;;;2.70;1.00;;;10.60;99.90;;;;;;5077427;28;20174;-80
2021/12/01 11:50:43;;;;;;;1.10;1.00;;;10.80;99.90;;;;;;5074974;28;20187;-81
2021/12/01 11:53:25;;;;;;;1.10;1.00;;;10.90;99.90;;;;;;5075228;28;20196;-80
2021/12/01 11:55:54;;;;;;;1.90;1.67;;;11.00;99.90;;;;;;5075981;28;20174;-79
2021/12/01 11:58:41;;;;;;;2.20;2.00;;;10.70;1.00;;;;;;5077279;28;20202;-80
2021/12/01 12:01:30;;;;;;;1.20;1.10;;;10.20;1.00;;;;;;5074304;28;20387;-79
2021/12/01 12:04:01;;;;;;;0.70;0.70;;;10.00;99.90;;;;;;5044588;28;20648;-80
2021/12/01 12:06:32;;;;;;;3.93;2.10;;;10.00;1.00;;;;;;5079263;28;20178;-81
2021/12/01 12:09:05;;;;;;;1.00;1.00;;;10.20;1.00;;;;;;5084923;28;20170;-81
2021/12/01 12:11:39;;;;;;;0.90;0.80;;;10.50;99.90;;;;;;5082756;28;20198;-81
2021/12/01 12:14:08;;;;;;;1.37;0.90;;;11.80;99.90;;;;;;5080085;28;20198;-81
2021/12/01 12:16:35;;;;;;;1.93;1.10;;;12.40;92.20;;;;;;5080979;28;20175;-78
2021/12/01 12:19:01;;;;;;;2.23;1.20;;;11.50;99.90;;;;;;5080905;28;20174;-79
2021/12/01 12:21:52;;;;;;;2.37;1.10;;;11.40;1.00;;;;;;5078434;28;20211;-79
2021/12/01 12:24:22;;;;;;;1.43;1.00;;;11.20;99.90;;;;;;5068418;28;20182;-79
2021/12/01 12:26:52;;;;;;;1.73;1.10;;;10.90;1.00;;;;;;5076343;28;20194;-80
2021/12/01 12:29:24;;;;;;;1.33;1.10;;;11.70;99.90;;;;;;5077345;28;20174;-79
2021/12/01 12:31:53;;;;;;;1.20;1.10;;;12.50;99.40;;;;;;5074968;28;20198;-80
2021/12/01 12:34:21;;;;;;;4.30;1.10;;;12.80;1.00;;;;;;5073150;28;20175;-78
2021/12/01 12:36:48;;;;;;;2.97;1.00;;;12.90;1.00;;;;;;5077298;28;20189;-79
2021/12/01 12:39:15;;;;;;;0.90;0.90;;;13.40;1.00;;;;;;5079343;28;20174;-81
2021/12/01 12:42:05;;;;;;;1.10;1.00;;;13.30;1.00;;;;;;5081815;28;20213;-78
2021/12/01 12:44:40;;;;;;;0.90;0.90;;;12.50;1.00;;;;;;5081573;28;20204;-79
2021/12/01 12:47:19;;;;;;;1.53;0.90;;;12.00;1.00;;;;;;5082520;28;20166;-79
2021/12/01 12:50:10;;;;;;;3.17;1.10;;;11.40;99.90;;;;;;5081126;28;20194;-80
2021/12/01 12:52:41;;;;;;;1.40;0.90;;;11.00;99.90;;;;;;5079330;28;20232;-81
2021/12/01 12:55:29;;;;;;;0.90;0.90;;;10.60;1.00;;;;;;5079473;28;20178;-78
2021/12/01 12:57:56;;;;;;;1.13;0.80;;;10.40;1.00;;;;;;5080403;28;20197;-80
2021/12/01 13:00:29;;;;;;;2.70;1.00;;;10.20;1.00;;;;;;5078907;28;20191;-80
2021/12/01 13:02:58;;;;;;;1.50;1.20;;;9.90;1.00;;;;;;5071145;28;20183;-79
2021/12/01 13:05:34;;;;;;;1.40;1.20;;;9.80;1.00;;;;;;5059394;28;20174;-80
2021/12/01 13:08:00;;;;;;;0.93;0.93;;;9.60;99.90;;;;;;5076122;28;20277;-80
2021/12/01 13:10:34;;;;;;;1.23;1.00;;;9.50;1.00;;;;;;5059879;28;20222;-81
2021/12/01 13:13:18;;;;;;;1.97;1.13;;;9.40;1.00;;;;;;5061886;28;20254;-80